createdAt,value
2022-08-09T00:00:00.202Z,3.92
2022-08-09T00:02:28.536Z,3.05
2022-08-09T00:05:03.377Z,3.22
2022-08-09T00:07:44.931Z,5.28
2022-08-09T00:10:18.242Z,4.53
2022-08-09T00:12:53.027Z,6.13
2022-08-09T00:15:20.579Z,8.75
2022-08-09T00:18:05.171Z,7.75
2022-08-09T00:20:42.374Z,4.28
2022-08-09T00:23:57.398Z,4.75
2022-08-09T00:26:05.051Z,5.10
2022-08-09T00:28:34.446Z,3.17
2022-08-09T00:31:30.527Z,3.78
2022-08-09T00:33:51.102Z,8.35
2022-08-09T00:36:19.153Z,7.82
2022-08-09T00:38:46.887Z,8.30
2022-08-09T00:44:14.424Z,5.30
2022-08-09T00:44:24.593Z,7.68
2022-08-09T00:46:57.647Z,6.43
2022-08-09T00:49:32.693Z,4.60
2022-08-09T00:52:05.254Z,9.13
2022-08-09T00:54:36.028Z,5.22
2022-08-09T00:57:10.416Z,6.63
2022-08-09T00:59:41.241Z,5.82
2022-08-09T01:02:13.465Z,4.78
2022-08-09T01:04:44.000Z,5.88
2022-08-09T01:07:13.922Z,5.30
2022-08-09T01:09:41.430Z,4.18
2022-08-09T01:12:09.229Z,9.52
2022-08-09T01:14:40.159Z,4.25
2022-08-09T01:17:09.035Z,4.22
2022-08-09T01:19:42.590Z,5.15
2022-08-09T01:22:12.392Z,6.20
2022-08-09T01:24:44.041Z,4.85
2022-08-09T01:27:17.920Z,11.07
2022-08-09T01:29:55.264Z,5.65
2022-08-09T01:32:32.180Z,5.75
2022-08-09T01:35:06.954Z,7.72
2022-08-09T01:38:10.070Z,5.50
2022-08-09T01:40:32.822Z,6.57
2022-08-09T01:43:00.155Z,5.95
2022-08-09T01:45:27.777Z,8.32
2022-08-09T01:47:57.575Z,6.80
2022-08-09T01:50:29.895Z,4.05
2022-08-09T01:53:20.117Z,4.75
2022-08-09T01:55:48.949Z,4.32
2022-08-09T01:58:16.153Z,8.73
2022-08-09T02:00:43.395Z,4.40
2022-08-09T02:03:13.926Z,4.97
2022-08-09T02:05:53.578Z,7.15
2022-08-09T02:08:39.063Z,6.20
2022-08-09T02:11:17.146Z,8.35
2022-08-09T02:14:02.215Z,8.40
2022-08-09T02:16:33.880Z,6.63
2022-08-09T02:19:20.276Z,6.20
2022-08-09T02:21:47.574Z,4.28
2022-08-09T02:24:26.103Z,4.43
2022-08-09T02:26:54.031Z,8.77
2022-08-09T02:29:21.918Z,7.72
2022-08-09T02:31:49.227Z,4.65
2022-08-09T02:34:25.796Z,6.05
2022-08-09T02:37:04.294Z,7.47
2022-08-09T02:39:42.144Z,7.30
2022-08-09T02:42:13.230Z,6.72
2022-08-09T02:44:40.447Z,4.90
2022-08-09T02:47:08.173Z,5.88
2022-08-09T02:49:39.007Z,7.68
2022-08-09T02:52:08.622Z,7.85
2022-08-09T02:54:35.854Z,6.78
2022-08-09T03:00:21.337Z,6.57
2022-08-09T03:02:38.323Z,6.10
2022-08-09T03:05:19.794Z,6.32
2022-08-09T03:07:55.350Z,10.07
2022-08-09T03:10:22.953Z,5.85
2022-08-09T03:12:52.089Z,8.18
2022-08-09T03:15:20.831Z,6.82
2022-08-09T03:17:54.053Z,9.38
2022-08-09T03:20:29.758Z,8.93
2022-08-09T03:23:00.358Z,7.03
2022-08-09T03:26:03.279Z,10.20
2022-08-09T03:28:29.597Z,12.02
2022-08-09T03:30:57.468Z,10.95
2022-08-09T03:33:26.125Z,12.75
2022-08-09T03:36:16.214Z,7.68
2022-08-09T03:38:44.650Z,9.77
2022-08-09T03:41:15.567Z,9.48
2022-08-09T03:44:02.943Z,11.65
2022-08-09T03:46:31.326Z,9.70
2022-08-09T03:48:58.746Z,10.27
2022-08-09T03:51:56.819Z,7.97
2022-08-09T03:54:18.325Z,10.02
2022-08-09T03:56:57.977Z,12.80
2022-08-09T03:59:42.679Z,6.55
2022-08-09T04:02:14.249Z,6.13
2022-08-09T04:04:46.379Z,9.07
2022-08-09T04:07:15.958Z,9.75
2022-08-09T04:09:52.847Z,7.63
2022-08-09T04:12:30.519Z,9.98
2022-08-09T04:15:01.544Z,9.63
2022-08-09T04:17:30.053Z,9.32
2022-08-09T04:20:02.435Z,6.72
2022-08-09T04:22:30.260Z,7.25
2022-08-09T04:24:59.179Z,5.88
2022-08-09T04:27:26.451Z,8.05
2022-08-09T04:29:56.395Z,7.28
2022-08-09T04:32:34.041Z,5.75
2022-08-09T04:35:04.718Z,9.50
2022-08-09T04:37:45.166Z,5.45
2022-08-09T04:40:19.647Z,10.48
2022-08-09T04:42:56.743Z,9.45
2022-08-09T04:45:24.211Z,11.40
2022-08-09T04:48:00.131Z,11.38
2022-08-09T04:50:34.982Z,8.80
2022-08-09T04:53:13.277Z,8.73
2022-08-09T04:55:59.121Z,10.23
2022-08-09T04:58:27.098Z,7.40
2022-08-09T05:00:54.751Z,6.30
2022-08-09T05:03:43.316Z,6.38
2022-08-09T05:06:09.480Z,5.03
2022-08-09T05:08:36.748Z,5.22
2022-08-09T05:11:06.701Z,6.25
2022-08-09T05:13:38.802Z,7.43
2022-08-09T05:16:06.491Z,10.50
2022-08-09T05:18:37.906Z,8.27
2022-08-09T05:21:24.649Z,7.50
2022-08-09T05:24:01.218Z,6.22
2022-08-09T05:26:35.919Z,9.98
2022-08-09T05:29:04.768Z,7.53
2022-08-09T05:31:44.073Z,7.18
2022-08-09T05:34:16.473Z,12.48
2022-08-09T05:36:47.238Z,10.27
2022-08-09T05:39:28.896Z,9.25
2022-08-09T05:42:01.662Z,7.53
2022-08-09T05:44:34.562Z,8.30
2022-08-09T05:47:04.904Z,7.40
2022-08-09T05:50:23.695Z,6.10
2022-08-09T05:52:20.504Z,9.32
2022-08-09T05:54:49.113Z,7.90
2022-08-09T05:57:17.666Z,7.15
2022-08-09T05:59:46.633Z,7.32
2022-08-09T06:02:17.154Z,6.30
2022-08-09T06:04:46.309Z,9.27
2022-08-09T06:07:21.361Z,7.60
2022-08-09T06:10:01.755Z,9.25
2022-08-09T06:12:29.830Z,8.30
2022-08-09T06:15:00.887Z,9.23
2022-08-09T06:17:40.173Z,10.20
2022-08-09T06:20:08.172Z,16.52
2022-08-09T06:22:36.260Z,15.45
2022-08-09T06:25:04.039Z,11.43
2022-08-09T06:27:42.603Z,12.20
2022-08-09T06:30:10.538Z,12.88
2022-08-09T06:32:53.110Z,15.32
2022-08-09T06:35:55.732Z,23.88
2022-08-09T06:38:15.912Z,21.27
2022-08-09T06:40:43.462Z,28.33
2022-08-09T06:43:11.545Z,26.27
2022-08-09T06:46:07.312Z,21.08
2022-08-09T06:48:31.112Z,19.00
2022-08-09T06:50:59.061Z,23.80
2022-08-09T06:53:26.286Z,29.60
2022-08-09T06:55:53.747Z,17.10
2022-08-09T06:58:40.554Z,14.23
2022-08-09T07:01:08.395Z,17.95
2022-08-09T07:03:39.736Z,13.85
2022-08-09T07:06:19.802Z,18.50
2022-08-09T07:08:49.590Z,17.45
2022-08-09T07:11:17.647Z,14.82
2022-08-09T07:14:05.062Z,12.77
2022-08-09T07:16:42.755Z,12.82
2022-08-09T07:19:18.718Z,18.70
2022-08-09T07:21:57.047Z,16.95
2022-08-09T07:24:31.380Z,18.13
2022-08-09T07:27:00.298Z,17.35
2022-08-09T07:29:27.616Z,12.38
2022-08-09T07:32:05.110Z,16.58
2022-08-09T07:34:33.080Z,16.48
2022-08-09T07:37:02.819Z,12.43
2022-08-09T07:39:41.032Z,13.23
2022-08-09T07:42:09.529Z,16.80
2022-08-09T07:44:51.973Z,19.05
2022-08-09T07:47:21.782Z,18.20
2022-08-09T07:50:04.452Z,17.58
2022-08-09T07:52:36.686Z,15.70
2022-08-09T07:55:09.489Z,15.10
2022-08-09T07:57:37.446Z,22.63
2022-08-09T08:00:20.142Z,11.60
2022-08-09T08:03:01.026Z,12.52
2022-08-09T08:05:53.897Z,11.90
2022-08-09T08:09:02.016Z,18.65
2022-08-09T08:12:25.124Z,17.70
2022-08-09T08:13:56.227Z,14.52
2022-08-09T08:16:29.896Z,12.52
2022-08-09T08:18:59.508Z,13.45
2022-08-09T08:21:30.845Z,14.93
2022-08-09T08:24:01.423Z,9.35
2022-08-09T08:26:55.218Z,18.30
2022-08-09T08:29:27.422Z,10.27
2022-08-09T08:32:03.525Z,10.27
2022-08-09T08:34:31.918Z,7.75
2022-08-09T08:37:01.779Z,17.17
2022-08-09T08:39:32.898Z,15.45
2022-08-09T08:42:06.951Z,8.57
2022-08-09T08:44:34.213Z,10.55
2022-08-09T08:47:12.158Z,9.88
2022-08-09T08:49:48.467Z,8.35
2022-08-09T08:52:50.459Z,4.63
2022-08-09T08:55:05.898Z,7.25
2022-08-09T08:57:34.732Z,14.85
2022-08-09T09:00:12.608Z,8.32
2022-08-09T09:02:44.647Z,7.07
2022-08-09T09:05:18.173Z,13.88
2022-08-09T09:07:53.468Z,4.63
2022-08-09T09:10:20.773Z,5.28
2022-08-09T09:12:48.935Z,4.97
2022-08-09T09:15:28.182Z,6.10
2022-08-09T09:17:55.994Z,6.32
2022-08-09T09:20:23.250Z,4.57
2022-08-09T09:22:53.207Z,3.00
2022-08-09T09:26:02.186Z,4.93
2022-08-09T09:28:10.937Z,6.32
2022-08-09T09:30:40.122Z,6.32
2022-08-09T09:33:16.139Z,4.72
2022-08-09T09:35:47.986Z,2.72
2022-08-09T09:38:36.751Z,6.32
2022-08-09T09:41:04.584Z,4.25
2022-08-09T09:43:40.996Z,5.97
2022-08-09T09:48:56.686Z,3.05
2022-08-09T09:51:37.957Z,5.95
2022-08-09T09:54:14.240Z,4.35
2022-08-09T09:56:53.298Z,6.05
2022-08-09T09:59:35.903Z,7.13
2022-08-09T10:02:03.258Z,3.83
2022-08-09T10:04:31.425Z,4.10
2022-08-09T10:07:03.432Z,6.32
2022-08-09T10:09:36.942Z,4.80
2022-08-09T10:12:14.774Z,5.43
2022-08-09T10:14:53.813Z,4.25
2022-08-09T10:17:40.203Z,4.13
2022-08-09T10:20:14.870Z,4.30
2022-08-09T10:22:42.752Z,3.80
2022-08-09T10:25:11.356Z,5.88
2022-08-09T10:27:55.783Z,4.68
2022-08-09T10:34:04.432Z,2.88
2022-08-09T10:36:00.922Z,8.38
2022-08-09T10:38:33.819Z,4.88
2022-08-09T10:41:01.834Z,5.72
2022-08-09T10:43:46.677Z,4.63
2022-08-09T10:46:22.166Z,8.32
2022-08-09T10:48:53.957Z,6.22
2022-08-09T10:51:21.350Z,4.93
2022-08-09T10:53:58.306Z,4.65
2022-08-09T10:56:29.868Z,3.55
2022-08-09T10:58:57.065Z,2.95
2022-08-09T11:03:18.429Z,3.20
2022-08-09T11:04:19.961Z,12.48
2022-08-09T11:06:57.369Z,8.25
2022-08-09T11:09:27.090Z,5.50
2022-08-09T11:12:05.015Z,5.18
2022-08-09T11:14:34.159Z,4.78
2022-08-09T11:17:01.849Z,11.50
2022-08-09T11:20:11.312Z,3.97
2022-08-09T11:22:25.667Z,6.50
2022-08-09T11:24:53.249Z,2.53
2022-08-09T11:28:02.855Z,27.73
2022-08-09T11:30:33.625Z,5.07
2022-08-09T11:32:56.376Z,12.35
2022-08-09T11:35:34.973Z,8.75
2022-08-09T11:38:14.112Z,12.93
2022-08-09T11:40:42.230Z,12.15
2022-08-09T11:43:11.528Z,12.13
2022-08-09T11:45:43.622Z,6.78
2022-08-09T11:48:19.311Z,7.22
2022-08-09T11:51:19.471Z,2.58
2022-08-09T11:54:01.362Z,5.35
2022-08-09T11:56:41.838Z,4.53
2022-08-09T11:59:11.690Z,2.40
2022-08-09T12:02:16.318Z,3.67
2022-08-09T12:04:32.521Z,4.05
2022-08-09T12:07:07.685Z,2.83
2022-08-09T12:09:36.170Z,6.63
2022-08-09T12:12:12.147Z,5.40
2022-08-09T12:15:07.505Z,4.93
2022-08-09T12:17:44.342Z,9.50
2022-08-09T12:20:16.505Z,6.03
2022-08-09T12:22:50.146Z,3.72
2022-08-09T12:25:17.710Z,4.00
2022-08-09T12:29:12.227Z,7.97
2022-08-09T12:30:51.621Z,4.90
2022-08-09T12:33:19.533Z,4.65
2022-08-09T12:35:53.160Z,5.20
2022-08-09T12:38:29.447Z,6.55
2022-08-09T12:41:04.677Z,3.97
2022-08-09T12:44:05.499Z,14.23
2022-08-09T12:46:21.891Z,7.75
2022-08-09T12:48:51.222Z,10.93
2022-08-09T12:51:30.452Z,5.68
2022-08-09T12:54:06.152Z,6.10
2022-08-09T12:56:46.570Z,7.30
2022-08-09T12:59:16.995Z,6.40
2022-08-09T13:01:49.160Z,10.80
2022-08-09T13:04:35.810Z,7.85
2022-08-09T13:07:05.418Z,4.50
2022-08-09T13:09:32.810Z,3.92
2022-08-09T13:12:06.239Z,2.35
2022-08-09T13:14:42.268Z,6.72
2022-08-09T13:17:16.119Z,6.85
2022-08-09T13:20:09.040Z,5.47
2022-08-09T13:23:01.468Z,8.32
2022-08-09T13:25:24.244Z,3.80
2022-08-09T13:27:55.612Z,5.03
2022-08-09T13:30:50.101Z,8.15
2022-08-09T13:33:17.287Z,5.45
2022-08-09T13:36:39.553Z,11.52
2022-08-09T13:38:54.287Z,10.98
2022-08-09T13:41:58.848Z,8.15
2022-08-09T13:44:08.007Z,8.38
2022-08-09T13:47:17.959Z,8.65
2022-08-09T13:49:22.774Z,6.00
2022-08-09T13:52:04.799Z,5.75
2022-08-09T13:54:42.986Z,4.55
2022-08-09T13:57:37.239Z,8.20
2022-08-09T14:00:07.293Z,5.25
2022-08-09T14:02:42.498Z,6.82
2022-08-09T14:05:59.715Z,7.38
2022-08-09T14:08:13.262Z,4.38
2022-08-09T14:10:49.248Z,3.80
2022-08-09T14:13:28.296Z,2.90
2022-08-09T14:16:11.062Z,5.30
2022-08-09T14:18:38.873Z,2.80
2022-08-09T14:21:17.401Z,2.85
2022-08-09T14:23:54.883Z,3.65
2022-08-09T14:26:25.562Z,3.83
2022-08-09T14:28:58.158Z,5.80
2022-08-09T14:31:35.976Z,3.70
2022-08-09T14:34:12.887Z,5.18
2022-08-09T14:36:44.840Z,6.88
2022-08-09T14:39:12.197Z,2.67
2022-08-09T14:41:40.209Z,3.10
2022-08-09T14:44:09.599Z,7.72
2022-08-09T14:47:03.133Z,4.15
2022-08-09T14:49:29.314Z,5.35
2022-08-09T14:52:02.104Z,3.15
2022-08-09T14:54:30.110Z,5.05
2022-08-09T14:56:59.178Z,7.07
2022-08-09T14:59:26.968Z,3.90
2022-08-09T15:01:54.707Z,4.32
2022-08-09T15:04:23.702Z,6.22
2022-08-09T15:06:51.700Z,3.05
2022-08-09T15:09:30.517Z,3.83
2022-08-09T15:12:08.023Z,6.45
2022-08-09T15:14:38.330Z,4.80
2022-08-09T15:17:09.337Z,7.38
2022-08-09T15:19:36.955Z,7.53
2022-08-09T15:22:22.105Z,2.33
2022-08-09T15:24:53.537Z,3.85
2022-08-09T15:27:21.935Z,7.80
2022-08-09T15:30:57.712Z,5.00
2022-08-09T15:32:36.585Z,3.17
2022-08-09T15:35:18.039Z,8.23
2022-08-09T15:37:57.367Z,3.47
2022-08-09T15:40:43.633Z,5.68
2022-08-09T15:43:13.759Z,6.05
2022-08-09T15:45:51.743Z,6.72
2022-08-09T15:48:31.833Z,5.85
2022-08-09T15:50:59.455Z,10.00
2022-08-09T15:54:03.985Z,2.97
2022-08-09T15:56:29.453Z,2.90
2022-08-09T15:59:00.884Z,6.60
2022-08-09T16:01:31.377Z,5.20
2022-08-09T16:04:02.962Z,8.15
2022-08-09T16:06:37.438Z,7.80
2022-08-09T16:09:05.464Z,11.55
2022-08-09T16:11:33.729Z,12.15
2022-08-09T16:14:03.348Z,13.70
2022-08-09T16:16:36.753Z,7.30
2022-08-09T16:19:04.727Z,8.95
2022-08-09T16:21:34.162Z,3.72
2022-08-09T16:24:02.998Z,3.83
2022-08-09T16:26:34.847Z,5.72
2022-08-09T16:29:10.774Z,3.70
2022-08-09T16:32:19.085Z,6.82
2022-08-09T16:34:26.564Z,2.75
2022-08-09T16:36:56.195Z,8.30
2022-08-09T16:39:25.875Z,3.65
2022-08-09T16:42:04.023Z,7.55
2022-08-09T16:44:32.274Z,6.80
2022-08-09T16:47:04.121Z,6.40
2022-08-09T16:50:29.192Z,4.05
2022-08-09T16:52:35.289Z,4.03
2022-08-09T16:55:02.752Z,7.38
2022-08-09T16:58:01.989Z,5.35
2022-08-09T17:00:17.781Z,3.45
2022-08-09T17:02:46.290Z,4.55
2022-08-09T17:05:14.295Z,4.72
2022-08-09T17:08:43.015Z,4.32
2022-08-09T17:10:34.861Z,4.53
2022-08-09T17:13:06.306Z,3.05
2022-08-09T17:15:59.937Z,9.60
2022-08-09T17:18:27.073Z,4.97
2022-08-09T17:20:57.791Z,5.32
2022-08-09T17:24:20.934Z,5.13
2022-08-09T17:26:13.600Z,5.00
2022-08-09T17:28:45.025Z,5.65
2022-08-09T17:31:12.310Z,3.17
2022-08-09T17:33:43.635Z,6.47
2022-08-09T17:36:15.580Z,3.72
2022-08-09T17:38:43.207Z,3.45
2022-08-09T17:41:37.665Z,5.25
2022-08-09T17:44:42.089Z,3.50
2022-08-09T17:46:55.557Z,5.75
2022-08-09T17:49:25.023Z,6.32
2022-08-09T17:51:55.549Z,5.70
2022-08-09T17:54:25.382Z,3.63
2022-08-09T17:56:57.115Z,7.13
2022-08-09T17:59:24.327Z,3.25
2022-08-09T18:02:12.853Z,5.45
2022-08-09T18:04:47.897Z,1.83
2022-08-09T18:07:23.406Z,5.75
2022-08-09T18:10:05.200Z,4.68
2022-08-09T18:12:40.595Z,7.85
2022-08-09T18:15:50.345Z,5.05
2022-08-09T18:18:10.118Z,4.95
2022-08-09T18:21:10.413Z,13.73
2022-08-09T18:24:10.773Z,3.13
2022-08-09T18:26:27.603Z,3.55
2022-08-09T18:30:40.545Z,4.85
2022-08-09T18:31:55.020Z,4.20
2022-08-09T18:34:23.926Z,4.25
2022-08-09T18:36:53.371Z,4.03
2022-08-09T18:39:22.481Z,4.78
2022-08-09T18:41:53.141Z,4.80
2022-08-09T18:44:25.344Z,5.30
2022-08-09T18:47:07.923Z,4.28
2022-08-09T18:49:41.655Z,5.78
2022-08-09T18:52:12.021Z,4.50
2022-08-09T18:54:39.387Z,4.20
2022-08-09T18:57:17.473Z,5.40
2022-08-09T18:59:49.146Z,2.30
2022-08-09T19:02:23.968Z,6.35
2022-08-09T19:05:03.275Z,3.40
2022-08-09T19:07:32.174Z,4.43
2022-08-09T19:10:16.753Z,5.80
2022-08-09T19:12:45.699Z,8.45
2022-08-09T19:15:19.822Z,10.35
2022-08-09T19:17:55.001Z,6.28
2022-08-09T19:20:25.604Z,6.15
2022-08-09T19:22:54.527Z,2.80
2022-08-09T19:25:41.666Z,5.07
2022-08-09T19:28:12.996Z,8.77
2022-08-09T19:30:44.478Z,4.65
2022-08-09T19:33:19.480Z,4.90
2022-08-09T19:35:57.287Z,4.00
2022-08-09T19:38:26.044Z,6.55
2022-08-09T19:40:57.846Z,4.03
2022-08-09T19:44:01.853Z,4.40
2022-08-09T19:46:15.325Z,3.65
2022-08-09T19:49:00.397Z,2.75
2022-08-09T19:51:31.064Z,7.10
2022-08-09T19:53:58.608Z,2.90
2022-08-09T19:56:28.862Z,4.28
2022-08-09T19:59:39.469Z,3.10
2022-08-09T20:02:03.495Z,4.60
2022-08-09T20:04:37.355Z,4.60
2022-08-09T20:07:15.920Z,6.38
2022-08-09T20:09:48.934Z,4.95
2022-08-09T20:12:31.693Z,5.25
2022-08-09T20:15:04.770Z,9.95
2022-08-09T20:17:54.143Z,2.85
2022-08-09T20:20:22.211Z,3.78
2022-08-09T20:22:56.493Z,4.13
2022-08-09T20:25:24.164Z,6.72
2022-08-09T20:27:52.721Z,4.65
2022-08-09T20:30:21.730Z,5.22
2022-08-09T20:32:51.903Z,9.88
2022-08-09T20:35:20.042Z,6.70
2022-08-09T20:38:23.993Z,6.13
2022-08-09T20:40:34.655Z,3.85
2022-08-09T20:43:17.996Z,6.55
2022-08-09T20:46:01.866Z,3.60
2022-08-09T20:48:36.783Z,7.30
2022-08-09T20:51:04.071Z,4.60
2022-08-09T20:53:37.139Z,4.30
2022-08-09T20:56:05.731Z,5.10
2022-08-09T20:58:33.371Z,6.32
2022-08-09T21:01:14.249Z,7.25
2022-08-09T21:05:49.870Z,3.58
2022-08-09T21:06:35.811Z,4.53
2022-08-09T21:09:03.270Z,4.03
2022-08-09T21:14:18.160Z,5.85
2022-08-09T21:16:45.769Z,5.53
2022-08-09T21:20:18.243Z,6.82
2022-08-09T21:22:03.347Z,4.40
2022-08-09T21:24:33.762Z,7.28
2022-08-09T21:27:10.443Z,4.55
2022-08-09T21:29:49.833Z,5.25
2022-08-09T21:32:18.658Z,4.03
2022-08-09T21:34:49.300Z,3.30
2022-08-09T21:37:18.097Z,4.47
2022-08-09T21:39:49.693Z,6.25
2022-08-09T21:42:17.285Z,6.40
2022-08-09T21:44:44.507Z,2.85
2022-08-09T21:47:17.636Z,4.55
2022-08-09T21:49:46.432Z,7.50
2022-08-09T21:52:18.159Z,10.98
2022-08-09T21:54:50.875Z,5.03
2022-08-09T21:57:38.943Z,5.00
2022-08-09T22:00:25.461Z,7.53
2022-08-09T22:02:58.102Z,1.73
2022-08-09T22:05:35.835Z,6.40
2022-08-09T22:08:05.100Z,7.05
2022-08-09T22:10:32.343Z,6.70
2022-08-09T22:13:00.541Z,8.48
2022-08-09T22:15:37.039Z,6.22
2022-08-09T22:18:04.464Z,7.57
2022-08-09T22:23:10.622Z,4.53
2022-08-09T22:26:05.803Z,3.80
2022-08-09T22:28:29.714Z,6.15
2022-08-09T22:31:00.369Z,6.63
2022-08-09T22:33:37.564Z,5.65
2022-08-09T22:36:14.870Z,7.68
2022-08-09T22:38:46.821Z,7.13
2022-08-09T22:41:14.173Z,3.88
2022-08-09T22:44:02.249Z,7.57
2022-08-09T22:48:14.691Z,4.57
2022-08-09T22:49:16.218Z,4.88
2022-08-09T22:51:49.797Z,4.75
2022-08-09T22:54:27.125Z,8.32
2022-08-09T22:56:57.090Z,8.80
2022-08-09T22:59:57.165Z,9.63
2022-08-09T23:02:14.930Z,9.27
2022-08-09T23:04:53.753Z,7.75
2022-08-09T23:08:22.247Z,4.65
2022-08-09T23:10:27.997Z,4.50
2022-08-09T23:12:55.262Z,7.28
2022-08-09T23:15:22.527Z,7.85
2022-08-09T23:17:49.818Z,7.15
2022-08-09T23:20:17.191Z,8.68
2022-08-09T23:22:44.500Z,3.50
2022-08-09T23:25:11.833Z,7.35
2022-08-09T23:28:14.347Z,4.80
2022-08-09T23:30:26.409Z,5.57
2022-08-09T23:32:53.740Z,4.55
2022-08-09T23:35:21.150Z,8.75
2022-08-09T23:37:48.542Z,6.63
2022-08-09T23:40:17.130Z,5.55
2022-08-09T23:42:44.653Z,6.35
2022-08-09T23:45:37.318Z,4.25
2022-08-09T23:47:59.414Z,4.57
2022-08-09T23:50:26.709Z,6.60
2022-08-09T23:56:53.616Z,7.00
2022-08-09T23:59:10.180Z,6.32
